sensor_id;sensor_type;location;lat;lon;timestamp;pressure;altitude;pressure_sealevel;temperature;humidity
77019;BME280;66044;53.142;17.962;2023-08-01T00:02:22;99893.21;;;19.32;62.80
77019;BME280;66044;53.142;17.962;2023-08-01T00:04:48;99891.00;;;19.33;62.84
77019;BME280;66044;53.142;17.962;2023-08-01T00:07:14;99885.08;;;19.33;62.73
77019;BME280;66044;53.142;17.962;2023-08-01T00:09:41;99883.48;;;19.32;62.78
77019;BME280;66044;53.142;17.962;2023-08-01T00:12:07;99874.47;;;19.30;62.75
77019;BME280;66044;53.142;17.962;2023-08-01T00:14:35;99870.98;;;19.29;62.83
77019;BME280;66044;53.142;17.962;2023-08-01T00:17:02;99865.55;;;19.27;62.87
77019;BME280;66044;53.142;17.962;2023-08-01T00:19:29;99863.92;;;19.25;62.94
77019;BME280;66044;53.142;17.962;2023-08-01T00:21:55;99862.17;;;19.23;63.01
77019;BME280;66044;53.142;17.962;2023-08-01T00:24:22;99861.72;;;19.21;63.07
77019;BME280;66044;53.142;17.962;2023-08-01T00:26:48;99859.26;;;19.17;63.15
77019;BME280;66044;53.142;17.962;2023-08-01T00:29:15;99856.10;;;19.15;63.23
77019;BME280;66044;53.142;17.962;2023-08-01T00:34:36;99848.16;;;19.08;63.35
77019;BME280;66044;53.142;17.962;2023-08-01T00:37:02;99847.85;;;19.07;63.39
77019;BME280;66044;53.142;17.962;2023-08-01T00:39:29;99842.72;;;19.06;63.41
77019;BME280;66044;53.142;17.962;2023-08-01T00:41:55;99837.90;;;19.05;63.43
77019;BME280;66044;53.142;17.962;2023-08-01T00:44:22;99834.73;;;19.04;63.57
77019;BME280;66044;53.142;17.962;2023-08-01T00:46:49;99826.73;;;19.03;63.61
77019;BME280;66044;53.142;17.962;2023-08-01T00:49:16;99826.42;;;19.02;63.58
77019;BME280;66044;53.142;17.962;2023-08-01T00:51:43;99820.84;;;19.01;63.52
77019;BME280;66044;53.142;17.962;2023-08-01T00:54:09;99816.42;;;18.99;63.61
77019;BME280;66044;53.142;17.962;2023-08-01T00:56:36;99813.48;;;18.97;63.62
77019;BME280;66044;53.142;17.962;2023-08-01T00:59:04;99807.42;;;18.96;63.63
77019;BME280;66044;53.142;17.962;2023-08-01T01:01:31;99800.83;;;18.94;63.65
77019;BME280;66044;53.142;17.962;2023-08-01T01:03:57;99795.41;;;18.92;63.76
77019;BME280;66044;53.142;17.962;2023-08-01T01:06:31;99787.23;;;18.86;63.79
77019;BME280;66044;53.142;17.962;2023-08-01T01:08:58;99791.85;;;18.89;63.69
77019;BME280;66044;53.142;17.962;2023-08-01T01:11:25;99788.60;;;18.87;63.82
77019;BME280;66044;53.142;17.962;2023-08-01T01:13:51;99778.45;;;18.85;63.85
77019;BME280;66044;53.142;17.962;2023-08-01T01:16:20;99781.02;;;18.83;63.88
77019;BME280;66044;53.142;17.962;2023-08-01T01:18:47;99778.77;;;18.83;63.90
77019;BME280;66044;53.142;17.962;2023-08-01T01:21:13;99774.11;;;18.82;63.95
77019;BME280;66044;53.142;17.962;2023-08-01T01:23:40;99769.06;;;18.81;63.98
77019;BME280;66044;53.142;17.962;2023-08-01T01:26:08;99771.09;;;18.81;64.04
77019;BME280;66044;53.142;17.962;2023-08-01T01:28:36;99764.79;;;18.80;64.01
77019;BME280;66044;53.142;17.962;2023-08-01T01:31:03;99761.52;;;18.80;63.97
77019;BME280;66044;53.142;17.962;2023-08-01T01:33:30;99759.62;;;18.79;64.03
77019;BME280;66044;53.142;17.962;2023-08-01T01:35:56;99759.54;;;18.78;64.08
77019;BME280;66044;53.142;17.962;2023-08-01T01:38:23;99754.19;;;18.77;64.13
77019;BME280;66044;53.142;17.962;2023-08-01T01:40:49;99751.31;;;18.76;64.17
77019;BME280;66044;53.142;17.962;2023-08-01T01:43:16;99742.38;;;18.75;64.21
77019;BME280;66044;53.142;17.962;2023-08-01T01:45:42;99741.77;;;18.74;64.15
77019;BME280;66044;53.142;17.962;2023-08-01T01:48:08;99740.52;;;18.74;64.29
77019;BME280;66044;53.142;17.962;2023-08-01T01:50:35;99740.52;;;18.74;64.34
77019;BME280;66044;53.142;17.962;2023-08-01T01:53:01;99734.55;;;18.73;64.38
77019;BME280;66044;53.142;17.962;2023-08-01T01:55:28;99732.78;;;18.71;64.40
77019;BME280;66044;53.142;17.962;2023-08-01T01:57:54;99729.98;;;18.72;64.53
77019;BME280;66044;53.142;17.962;2023-08-01T02:00:20;99727.35;;;18.71;64.52
77019;BME280;66044;53.142;17.962;2023-08-01T02:02:47;99722.77;;;18.70;64.60
77019;BME280;66044;53.142;17.962;2023-08-01T02:05:13;99717.95;;;18.70;64.61
77019;BME280;66044;53.142;17.962;2023-08-01T02:07:40;99711.52;;;18.69;64.57
77019;BME280;66044;53.142;17.962;2023-08-01T02:10:07;99710.89;;;18.68;64.68
77019;BME280;66044;53.142;17.962;2023-08-01T02:12:34;99703.43;;;18.66;64.68
77019;BME280;66044;53.142;17.962;2023-08-01T02:15:02;99700.57;;;18.66;64.80
77019;BME280;66044;53.142;17.962;2023-08-01T02:17:28;99698.82;;;18.63;64.79
77019;BME280;66044;53.142;17.962;2023-08-01T02:19:55;99691.37;;;18.62;64.83
77019;BME280;66044;53.142;17.962;2023-08-01T02:22:23;99688.48;;;18.61;64.88
77019;BME280;66044;53.142;17.962;2023-08-01T02:24:49;99685.00;;;18.61;64.98
77019;BME280;66044;53.142;17.962;2023-08-01T02:27:16;99683.06;;;18.60;64.98
77019;BME280;66044;53.142;17.962;2023-08-01T02:29:42;99677.31;;;18.60;64.90
77019;BME280;66044;53.142;17.962;2023-08-01T02:32:08;99673.81;;;18.60;64.88
77019;BME280;66044;53.142;17.962;2023-08-01T02:34:35;99667.21;;;18.59;64.96
77019;BME280;66044;53.142;17.962;2023-08-01T02:37:01;99665.35;;;18.59;65.04
77019;BME280;66044;53.142;17.962;2023-08-01T02:39:28;99664.65;;;18.59;64.98
77019;BME280;66044;53.142;17.962;2023-08-01T02:41:54;99664.18;;;18.58;65.00
77019;BME280;66044;53.142;17.962;2023-08-01T02:44:21;99660.85;;;18.58;65.07
77019;BME280;66044;53.142;17.962;2023-08-01T02:46:47;99660.69;;;18.59;65.01
77019;BME280;66044;53.142;17.962;2023-08-01T02:49:14;99654.87;;;18.57;65.06
77019;BME280;66044;53.142;17.962;2023-08-01T02:51:40;99658.06;;;18.57;65.05
77019;BME280;66044;53.142;17.962;2023-08-01T02:54:06;99655.74;;;18.55;65.11
77019;BME280;66044;53.142;17.962;2023-08-01T02:56:33;99655.58;;;18.54;65.08
77019;BME280;66044;53.142;17.962;2023-08-01T02:58:59;99655.51;;;18.54;65.16
77019;BME280;66044;53.142;17.962;2023-08-01T03:01:26;99655.43;;;18.54;65.17
77019;BME280;66044;53.142;17.962;2023-08-01T03:03:52;99651.16;;;18.55;65.15
77019;BME280;66044;53.142;17.962;2023-08-01T03:06:19;99653.72;;;18.54;65.25
77019;BME280;66044;53.142;17.962;2023-08-01T03:08:45;99652.63;;;18.54;65.14
77019;BME280;66044;53.142;17.962;2023-08-01T03:11:11;99651.92;;;18.54;65.23
77019;BME280;66044;53.142;17.962;2023-08-01T03:13:38;99653.48;;;18.53;65.20
77019;BME280;66044;53.142;17.962;2023-08-01T03:16:04;99650.92;;;18.53;65.23
77019;BME280;66044;53.142;17.962;2023-08-01T03:18:31;99649.14;;;18.53;65.28
77019;BME280;66044;53.142;17.962;2023-08-01T03:20:57;99648.05;;;18.52;65.26
77019;BME280;66044;53.142;17.962;2023-08-01T03:23:24;99648.61;;;18.51;65.43
77019;BME280;66044;53.142;17.962;2023-08-01T03:25:50;99642.17;;;18.49;65.38
77019;BME280;66044;53.142;17.962;2023-08-01T03:28:17;99642.50;;;18.49;65.43
77019;BME280;66044;53.142;17.962;2023-08-01T03:30:44;99632.95;;;18.48;65.47
77019;BME280;66044;53.142;17.962;2023-08-01T03:33:10;99631.02;;;18.47;65.59
77019;BME280;66044;53.142;17.962;2023-08-01T03:35:37;99624.73;;;18.46;65.57
77019;BME280;66044;53.142;17.962;2023-08-01T03:38:03;99626.28;;;18.46;65.65
77019;BME280;66044;53.142;17.962;2023-08-01T03:40:29;99620.00;;;18.46;65.76
77019;BME280;66044;53.142;17.962;2023-08-01T03:42:56;99619.77;;;18.46;65.77
77019;BME280;66044;53.142;17.962;2023-08-01T03:45:22;99610.44;;;18.46;65.90
77019;BME280;66044;53.142;17.962;2023-08-01T03:47:48;99605.78;;;18.44;66.01
77019;BME280;66044;53.142;17.962;2023-08-01T03:50:15;99609.44;;;18.45;66.12
77019;BME280;66044;53.142;17.962;2023-08-01T03:52:41;99609.28;;;18.44;66.31
77019;BME280;66044;53.142;17.962;2023-08-01T03:55:08;99609.45;;;18.44;66.47
77019;BME280;66044;53.142;17.962;2023-08-01T03:57:34;99608.75;;;18.44;66.77
77019;BME280;66044;53.142;17.962;2023-08-01T04:00:01;99605.58;;;18.42;66.90
77019;BME280;66044;53.142;17.962;2023-08-01T04:02:29;99608.40;;;18.40;67.08
77019;BME280;66044;53.142;17.962;2023-08-01T04:04:55;99615.56;;;18.39;67.17
77019;BME280;66044;53.142;17.962;2023-08-01T04:07:22;99614.88;;;18.38;67.31
77019;BME280;66044;53.142;17.962;2023-08-01T04:09:48;99615.82;;;18.36;67.59
77019;BME280;66044;53.142;17.962;2023-08-01T04:12:14;99609.39;;;18.35;67.79
77019;BME280;66044;53.142;17.962;2023-08-01T04:14:41;99609.10;;;18.33;68.02
77019;BME280;66044;53.142;17.962;2023-08-01T04:17:08;99608.11;;;18.30;68.05
77019;BME280;66044;53.142;17.962;2023-08-01T04:19:34;99605.10;;;18.28;68.26
77019;BME280;66044;53.142;17.962;2023-08-01T04:22:04;99605.52;;;18.26;68.46
77019;BME280;66044;53.142;17.962;2023-08-01T04:24:30;99604.83;;;18.25;68.55
77019;BME280;66044;53.142;17.962;2023-08-01T04:26:57;99602.82;;;18.23;68.82
77019;BME280;66044;53.142;17.962;2023-08-01T04:29:23;99600.80;;;18.22;68.90
77019;BME280;66044;53.142;17.962;2023-08-01T04:31:50;99602.59;;;18.21;68.89
77019;BME280;66044;53.142;17.962;2023-08-01T04:34:16;99592.77;;;18.18;69.08
77019;BME280;66044;53.142;17.962;2023-08-01T04:36:42;99598.38;;;18.16;69.26
77019;BME280;66044;53.142;17.962;2023-08-01T04:39:09;99596.69;;;18.14;69.46
77019;BME280;66044;53.142;17.962;2023-08-01T04:41:35;99596.23;;;18.12;69.68
77019;BME280;66044;53.142;17.962;2023-08-01T04:44:02;99596.34;;;18.11;69.87
77019;BME280;66044;53.142;17.962;2023-08-01T04:46:28;99594.02;;;18.09;70.04
77019;BME280;66044;53.142;17.962;2023-08-01T04:48:55;99590.23;;;18.06;70.09
77019;BME280;66044;53.142;17.962;2023-08-01T04:51:21;99589.27;;;18.04;70.38
77019;BME280;66044;53.142;17.962;2023-08-01T04:53:48;99589.50;;;18.02;70.59
77019;BME280;66044;53.142;17.962;2023-08-01T04:56:14;99588.05;;;17.99;70.72
77019;BME280;66044;53.142;17.962;2023-08-01T04:58:41;99589.34;;;17.95;70.97
77019;BME280;66044;53.142;17.962;2023-08-01T05:01:07;99588.17;;;17.96;71.26
77019;BME280;66044;53.142;17.962;2023-08-01T05:03:35;99590.03;;;17.95;71.38
77019;BME280;66044;53.142;17.962;2023-08-01T05:06:02;99584.14;;;17.93;71.40
77019;BME280;66044;53.142;17.962;2023-08-01T05:08:29;99585.16;;;17.92;71.55
77019;BME280;66044;53.142;17.962;2023-08-01T05:10:55;99576.77;;;17.91;71.80
77019;BME280;66044;53.142;17.962;2023-08-01T05:13:22;99578.61;;;17.88;71.95
77019;BME280;66044;53.142;17.962;2023-08-01T05:15:48;99579.40;;;17.86;72.10
77019;BME280;66044;53.142;17.962;2023-08-01T05:18:18;99579.02;;;17.85;72.20
77019;BME280;66044;53.142;17.962;2023-08-01T05:20:44;99576.25;;;17.82;72.35
77019;BME280;66044;53.142;17.962;2023-08-01T05:23:10;99571.31;;;17.77;72.69
77019;BME280;66044;53.142;17.962;2023-08-01T05:25:37;99565.20;;;17.75;72.86
77019;BME280;66044;53.142;17.962;2023-08-01T05:28:04;99557.70;;;17.72;72.99
77019;BME280;66044;53.142;17.962;2023-08-01T05:30:30;99562.09;;;17.75;73.26
77019;BME280;66044;53.142;17.962;2023-08-01T05:32:57;99561.54;;;17.76;73.34
77019;BME280;66044;53.142;17.962;2023-08-01T05:35:23;99555.79;;;17.76;73.53
77019;BME280;66044;53.142;17.962;2023-08-01T05:37:49;99556.33;;;17.76;73.56
77019;BME280;66044;53.142;17.962;2023-08-01T05:40:16;99548.04;;;17.75;73.57
77019;BME280;66044;53.142;17.962;2023-08-01T05:42:42;99551.88;;;17.73;73.71
77019;BME280;66044;53.142;17.962;2023-08-01T05:45:10;99549.32;;;17.73;73.90
77019;BME280;66044;53.142;17.962;2023-08-01T05:47:37;99547.99;;;17.72;73.96
77019;BME280;66044;53.142;17.962;2023-08-01T05:50:07;99542.73;;;17.71;74.12
77019;BME280;66044;53.142;17.962;2023-08-01T05:52:34;99544.98;;;17.71;74.20
77019;BME280;66044;53.142;17.962;2023-08-01T05:55:01;99536.14;;;17.70;74.29
77019;BME280;66044;53.142;17.962;2023-08-01T05:57:27;99534.70;;;17.66;74.43
77019;BME280;66044;53.142;17.962;2023-08-01T05:59:59;99533.02;;;17.63;74.50
77019;BME280;66044;53.142;17.962;2023-08-01T06:02:25;99527.81;;;17.60;74.69
77019;BME280;66044;53.142;17.962;2023-08-01T06:04:52;99529.40;;;17.56;74.91
77019;BME280;66044;53.142;17.962;2023-08-01T06:07:18;99535.38;;;17.53;75.02
77019;BME280;66044;53.142;17.962;2023-08-01T06:09:50;99538.37;;;17.51;75.19
77019;BME280;66044;53.142;17.962;2023-08-01T06:12:19;99539.93;;;17.50;75.35
77019;BME280;66044;53.142;17.962;2023-08-01T06:14:46;99536.29;;;17.48;75.41
77019;BME280;66044;53.142;17.962;2023-08-01T06:17:14;99539.79;;;17.46;75.52
77019;BME280;66044;53.142;17.962;2023-08-01T06:19:41;99540.59;;;17.44;75.67
77019;BME280;66044;53.142;17.962;2023-08-01T06:22:08;99537.33;;;17.45;75.85
77019;BME280;66044;53.142;17.962;2023-08-01T06:24:34;99533.48;;;17.49;75.95
77019;BME280;66044;53.142;17.962;2023-08-01T06:27:01;99530.34;;;17.54;75.99
77019;BME280;66044;53.142;17.962;2023-08-01T06:29:27;99526.67;;;17.57;76.01
77019;BME280;66044;53.142;17.962;2023-08-01T06:31:54;99527.96;;;17.61;76.02
77019;BME280;66044;53.142;17.962;2023-08-01T06:34:20;99524.78;;;17.64;75.90
77019;BME280;66044;53.142;17.962;2023-08-01T06:36:47;99520.67;;;17.64;75.94
77019;BME280;66044;53.142;17.962;2023-08-01T06:39:14;99524.94;;;17.65;75.93
77019;BME280;66044;53.142;17.962;2023-08-01T06:41:40;99520.98;;;17.65;75.94
77019;BME280;66044;53.142;17.962;2023-08-01T06:44:07;99516.02;;;17.64;75.98
77019;BME280;66044;53.142;17.962;2023-08-01T06:46:33;99519.80;;;17.67;76.09
77019;BME280;66044;53.142;17.962;2023-08-01T06:49:01;99518.59;;;17.72;76.04
77019;BME280;66044;53.142;17.962;2023-08-01T06:51:27;99521.42;;;17.75;76.05
77019;BME280;66044;53.142;17.962;2023-08-01T06:53:53;99518.75;;;17.80;76.06
77019;BME280;66044;53.142;17.962;2023-08-01T06:56:20;99517.91;;;17.86;76.11
77019;BME280;66044;53.142;17.962;2023-08-01T06:58:47;99513.11;;;17.93;75.93
77019;BME280;66044;53.142;17.962;2023-08-01T07:01:13;99511.38;;;17.96;75.87
77019;BME280;66044;53.142;17.962;2023-08-01T07:03:40;99506.68;;;17.99;75.73
77019;BME280;66044;53.142;17.962;2023-08-01T07:06:06;99506.80;;;18.02;75.77
77019;BME280;66044;53.142;17.962;2023-08-01T07:08:32;99497.16;;;18.03;75.71
77019;BME280;66044;53.142;17.962;2023-08-01T07:10:59;99493.88;;;18.06;75.77
77019;BME280;66044;53.142;17.962;2023-08-01T07:13:26;99495.25;;;18.08;75.88
77019;BME280;66044;53.142;17.962;2023-08-01T07:15:53;99491.11;;;18.10;75.93
77019;BME280;66044;53.142;17.962;2023-08-01T07:18:20;99489.83;;;18.13;75.89
77019;BME280;66044;53.142;17.962;2023-08-01T07:20:47;99490.24;;;18.18;76.00
77019;BME280;66044;53.142;17.962;2023-08-01T07:23:13;99484.89;;;18.25;75.96
77019;BME280;66044;53.142;17.962;2023-08-01T07:25:40;99482.59;;;18.30;75.98
77019;BME280;66044;53.142;17.962;2023-08-01T07:28:06;99481.91;;;18.34;75.94
77019;BME280;66044;53.142;17.962;2023-08-01T07:30:33;99479.01;;;18.37;75.98
77019;BME280;66044;53.142;17.962;2023-08-01T07:32:59;99480.37;;;18.40;75.92
77019;BME280;66044;53.142;17.962;2023-08-01T07:35:25;99476.89;;;18.42;75.84
77019;BME280;66044;53.142;17.962;2023-08-01T07:37:52;99478.88;;;18.41;75.89
77019;BME280;66044;53.142;17.962;2023-08-01T07:40:18;99477.77;;;18.35;75.93
77019;BME280;66044;53.142;17.962;2023-08-01T07:42:45;99473.48;;;18.31;75.95
77019;BME280;66044;53.142;17.962;2023-08-01T07:45:12;99473.27;;;18.30;75.96
77019;BME280;66044;53.142;17.962;2023-08-01T07:47:39;99472.18;;;18.29;76.04
77019;BME280;66044;53.142;17.962;2023-08-01T07:50:06;99471.80;;;18.28;76.12
77019;BME280;66044;53.142;17.962;2023-08-01T07:52:32;99469.62;;;18.28;76.07
77019;BME280;66044;53.142;17.962;2023-08-01T07:54:59;99468.02;;;18.27;76.06
77019;BME280;66044;53.142;17.962;2023-08-01T07:57:25;99466.39;;;18.26;76.15
77019;BME280;66044;53.142;17.962;2023-08-01T07:59:54;99465.70;;;18.32;76.15
77019;BME280;66044;53.142;17.962;2023-08-01T08:02:20;99464.02;;;18.35;75.95
77019;BME280;66044;53.142;17.962;2023-08-01T08:04:47;99467.16;;;18.39;75.92
77019;BME280;66044;53.142;17.962;2023-08-01T08:07:19;99463.75;;;18.45;75.79
77019;BME280;66044;53.142;17.962;2023-08-01T08:09:46;99457.21;;;18.52;75.81
77019;BME280;66044;53.142;17.962;2023-08-01T08:12:14;99456.11;;;18.60;75.59
77019;BME280;66044;53.142;17.962;2023-08-01T08:14:42;99457.60;;;18.66;75.56
77019;BME280;66044;53.142;17.962;2023-08-01T08:17:14;99456.02;;;18.68;75.38
77019;BME280;66044;53.142;17.962;2023-08-01T08:19:41;99451.81;;;18.69;75.26
77019;BME280;66044;53.142;17.962;2023-08-01T08:22:09;99451.71;;;18.64;75.23
77019;BME280;66044;53.142;17.962;2023-08-01T08:24:37;99452.77;;;18.62;75.24
77019;BME280;66044;53.142;17.962;2023-08-01T08:27:07;99451.94;;;18.59;75.18
77019;BME280;66044;53.142;17.962;2023-08-01T08:29:38;99450.16;;;18.58;75.19
77019;BME280;66044;53.142;17.962;2023-08-01T08:32:07;99447.65;;;18.60;75.35
77019;BME280;66044;53.142;17.962;2023-08-01T08:34:37;99447.15;;;18.68;75.33
77019;BME280;66044;53.142;17.962;2023-08-01T08:37:05;99443.58;;;18.74;75.22
77019;BME280;66044;53.142;17.962;2023-08-01T08:39:34;99444.95;;;18.77;75.07
77019;BME280;66044;53.142;17.962;2023-08-01T08:42:01;99441.48;;;18.78;75.07
77019;BME280;66044;53.142;17.962;2023-08-01T08:44:29;99442.00;;;18.85;75.18
77019;BME280;66044;53.142;17.962;2023-08-01T08:47:02;99440.42;;;18.92;75.02
77019;BME280;66044;53.142;17.962;2023-08-01T08:49:31;99435.05;;;18.99;74.72
77019;BME280;66044;53.142;17.962;2023-08-01T08:51:58;99433.92;;;19.06;74.51
77019;BME280;66044;53.142;17.962;2023-08-01T08:54:25;99434.77;;;19.11;74.22
77019;BME280;66044;53.142;17.962;2023-08-01T08:56:53;99429.20;;;19.20;74.08
77019;BME280;66044;53.142;17.962;2023-08-01T08:59:21;99426.36;;;19.31;74.18
77019;BME280;66044;53.142;17.962;2023-08-01T09:01:47;99424.27;;;19.49;73.87
77019;BME280;66044;53.142;17.962;2023-08-01T09:04:14;99414.88;;;19.83;73.07
77019;BME280;66044;53.142;17.962;2023-08-01T09:06:49;99412.66;;;20.23;72.28
77019;BME280;66044;53.142;17.962;2023-08-01T09:09:17;99408.14;;;20.68;71.55
77019;BME280;66044;53.142;17.962;2023-08-01T09:11:46;99405.72;;;21.11;70.22
77019;BME280;66044;53.142;17.962;2023-08-01T09:14:13;99398.21;;;21.34;68.96
77019;BME280;66044;53.142;17.962;2023-08-01T09:16:40;99394.63;;;21.41;68.51
77019;BME280;66044;53.142;17.962;2023-08-01T09:19:08;99392.34;;;21.42;67.96
77019;BME280;66044;53.142;17.962;2023-08-01T09:21:36;99390.64;;;21.49;67.71
77019;BME280;66044;53.142;17.962;2023-08-01T09:24:16;99389.61;;;21.35;66.87
77019;BME280;66044;53.142;17.962;2023-08-01T09:26:44;99390.63;;;21.13;66.74
77019;BME280;66044;53.142;17.962;2023-08-01T09:29:11;99387.81;;;21.03;66.89
77019;BME280;66044;53.142;17.962;2023-08-01T09:31:42;99385.99;;;20.91;66.93
77019;BME280;66044;53.142;17.962;2023-08-01T09:34:20;99383.61;;;20.86;66.92
77019;BME280;66044;53.142;17.962;2023-08-01T09:36:47;99381.34;;;20.83;67.00
77019;BME280;66044;53.142;17.962;2023-08-01T09:39:21;99378.80;;;20.75;67.08
77019;BME280;66044;53.142;17.962;2023-08-01T09:42:02;99377.77;;;20.69;67.08
77019;BME280;66044;53.142;17.962;2023-08-01T09:44:29;99373.36;;;20.68;67.42
77019;BME280;66044;53.142;17.962;2023-08-01T09:47:00;99373.91;;;20.71;67.25
77019;BME280;66044;53.142;17.962;2023-08-01T09:49:28;99367.66;;;20.75;67.06
77019;BME280;66044;53.142;17.962;2023-08-01T09:51:58;99365.06;;;20.73;67.16
77019;BME280;66044;53.142;17.962;2023-08-01T09:54:25;99355.38;;;20.66;67.02
77019;BME280;66044;53.142;17.962;2023-08-01T09:56:53;99358.52;;;20.62;67.19
77019;BME280;66044;53.142;17.962;2023-08-01T09:59:21;99356.99;;;20.61;67.36
77019;BME280;66044;53.142;17.962;2023-08-01T10:01:50;99353.33;;;20.54;67.34
77019;BME280;66044;53.142;17.962;2023-08-01T10:04:24;99350.91;;;20.44;67.42
77019;BME280;66044;53.142;17.962;2023-08-01T10:06:57;99348.44;;;20.36;67.42
77019;BME280;66044;53.142;17.962;2023-08-01T10:09:26;99350.63;;;20.24;67.52
77019;BME280;66044;53.142;17.962;2023-08-01T10:11:56;99346.08;;;20.15;67.71
77019;BME280;66044;53.142;17.962;2023-08-01T10:14:23;99344.94;;;20.09;67.96
77019;BME280;66044;53.142;17.962;2023-08-01T10:16:53;99349.02;;;20.04;68.45
77019;BME280;66044;53.142;17.962;2023-08-01T10:19:20;99353.30;;;19.93;69.08
77019;BME280;66044;53.142;17.962;2023-08-01T10:21:47;99353.23;;;19.85;69.67
77019;BME280;66044;53.142;17.962;2023-08-01T10:24:15;99349.89;;;19.81;70.07
77019;BME280;66044;53.142;17.962;2023-08-01T10:26:46;99346.92;;;19.77;70.32
77019;BME280;66044;53.142;17.962;2023-08-01T10:29:15;99347.09;;;19.74;70.81
77019;BME280;66044;53.142;17.962;2023-08-01T10:31:52;99338.83;;;19.69;71.01
77019;BME280;66044;53.142;17.962;2023-08-01T10:34:21;99328.64;;;19.69;71.24
77019;BME280;66044;53.142;17.962;2023-08-01T10:36:54;99318.77;;;19.76;71.47
77019;BME280;66044;53.142;17.962;2023-08-01T10:39:23;99309.66;;;19.91;71.45
77019;BME280;66044;53.142;17.962;2023-08-01T10:42:00;99309.98;;;20.12;71.26
77019;BME280;66044;53.142;17.962;2023-08-01T10:44:27;99306.86;;;20.33;71.09
77019;BME280;66044;53.142;17.962;2023-08-01T10:46:57;99300.78;;;20.44;70.81
77019;BME280;66044;53.142;17.962;2023-08-01T10:52:03;99290.75;;;20.51;70.66
77019;BME280;66044;53.142;17.962;2023-08-01T10:54:30;99288.35;;;20.42;70.74
77019;BME280;66044;53.142;17.962;2023-08-01T10:56:58;99283.41;;;20.30;70.73
77019;BME280;66044;53.142;17.962;2023-08-01T10:59:26;99280.11;;;20.17;70.92
77019;BME280;66044;53.142;17.962;2023-08-01T11:01:53;99275.80;;;20.08;71.01
77019;BME280;66044;53.142;17.962;2023-08-01T11:04:22;99274.14;;;20.08;70.97
77019;BME280;66044;53.142;17.962;2023-08-01T11:06:57;99277.79;;;20.09;71.08
77019;BME280;66044;53.142;17.962;2023-08-01T11:09:26;99270.82;;;20.04;71.40
77019;BME280;66044;53.142;17.962;2023-08-01T11:11:55;99272.63;;;20.00;71.49
77019;BME280;66044;53.142;17.962;2023-08-01T11:14:23;99272.27;;;19.94;71.82
77019;BME280;66044;53.142;17.962;2023-08-01T11:16:50;99266.86;;;19.93;71.84
77019;BME280;66044;53.142;17.962;2023-08-01T11:19:25;99264.73;;;19.94;72.07
77019;BME280;66044;53.142;17.962;2023-08-01T11:21:52;99261.30;;;19.98;71.87
77019;BME280;66044;53.142;17.962;2023-08-01T11:24:19;99259.73;;;20.06;71.62
77019;BME280;66044;53.142;17.962;2023-08-01T11:26:47;99257.73;;;20.14;71.43
77019;BME280;66044;53.142;17.962;2023-08-01T11:29:15;99259.06;;;20.14;71.41
77019;BME280;66044;53.142;17.962;2023-08-01T11:31:55;99264.54;;;20.09;71.64
77019;BME280;66044;53.142;17.962;2023-08-01T11:34:22;99266.09;;;20.03;71.95
77019;BME280;66044;53.142;17.962;2023-08-01T11:36:49;99265.64;;;19.88;72.40
77019;BME280;66044;53.142;17.962;2023-08-01T11:39:16;99268.31;;;19.72;73.11
77019;BME280;66044;53.142;17.962;2023-08-01T11:41:43;99267.77;;;19.57;73.37
77019;BME280;66044;53.142;17.962;2023-08-01T11:44:10;99261.91;;;19.51;73.83
77019;BME280;66044;53.142;17.962;2023-08-01T11:46:38;99262.38;;;19.50;73.91
77019;BME280;66044;53.142;17.962;2023-08-01T11:49:08;99259.96;;;19.54;74.17
77019;BME280;66044;53.142;17.962;2023-08-01T11:51:44;99252.20;;;19.61;74.18
77019;BME280;66044;53.142;17.962;2023-08-01T11:54:11;99248.45;;;19.69;74.27
77019;BME280;66044;53.142;17.962;2023-08-01T11:56:40;99248.21;;;19.74;74.36
77019;BME280;66044;53.142;17.962;2023-08-01T11:59:12;99244.50;;;19.76;74.50
77019;BME280;66044;53.142;17.962;2023-08-01T12:01:40;99243.95;;;19.77;74.67
77019;BME280;66044;53.142;17.962;2023-08-01T12:04:07;99242.60;;;19.77;74.67
77019;BME280;66044;53.142;17.962;2023-08-01T12:06:34;99239.95;;;19.81;74.54
77019;BME280;66044;53.142;17.962;2023-08-01T12:09:10;99234.89;;;19.81;74.53
77019;BME280;66044;53.142;17.962;2023-08-01T12:11:38;99232.29;;;19.96;74.60
77019;BME280;66044;53.142;17.962;2023-08-01T12:14:08;99231.63;;;20.21;74.14
77019;BME280;66044;53.142;17.962;2023-08-01T12:16:37;99228.71;;;20.40;73.99
77019;BME280;66044;53.142;17.962;2023-08-01T12:19:04;99228.77;;;20.53;73.76
77019;BME280;66044;53.142;17.962;2023-08-01T12:21:32;99226.23;;;20.64;73.20
77019;BME280;66044;53.142;17.962;2023-08-01T12:23:59;99227.61;;;20.72;73.07
77019;BME280;66044;53.142;17.962;2023-08-01T12:26:26;99222.16;;;20.74;72.81
77019;BME280;66044;53.142;17.962;2023-08-01T12:28:53;99223.96;;;20.86;72.65
77019;BME280;66044;53.142;17.962;2023-08-01T12:31:21;99220.78;;;20.79;72.27
77019;BME280;66044;53.142;17.962;2023-08-01T12:33:48;99220.52;;;20.65;72.41
77019;BME280;66044;53.142;17.962;2023-08-01T12:36:16;99217.71;;;20.50;72.44
77019;BME280;66044;53.142;17.962;2023-08-01T12:38:42;99211.15;;;20.34;72.46
77019;BME280;66044;53.142;17.962;2023-08-01T12:41:09;99210.00;;;20.26;72.84
77019;BME280;66044;53.142;17.962;2023-08-01T12:43:35;99209.90;;;20.21;72.98
77019;BME280;66044;53.142;17.962;2023-08-01T12:46:02;99207.70;;;20.13;73.15
77019;BME280;66044;53.142;17.962;2023-08-01T12:48:28;99208.11;;;20.04;73.55
77019;BME280;66044;53.142;17.962;2023-08-01T12:50:55;99197.34;;;20.01;73.77
77019;BME280;66044;53.142;17.962;2023-08-01T12:53:22;99194.91;;;20.06;73.92
77019;BME280;66044;53.142;17.962;2023-08-01T12:55:50;99197.98;;;20.11;73.89
77019;BME280;66044;53.142;17.962;2023-08-01T12:58:18;99199.66;;;20.19;74.04